sensor_id;sensor_type;location;lat;lon;timestamp;temperature;humidity
33269;DHT22;19640;50.944;5.260;2023-07-29T00:00:52;20.30;99.90
33269;DHT22;19640;50.944;5.260;2023-07-29T00:03:18;20.30;99.90
33269;DHT22;19640;50.944;5.260;2023-07-29T00:05:44;20.40;99.90
33269;DHT22;19640;50.944;5.260;2023-07-29T00:08:09;20.60;99.90
33269;DHT22;19640;50.944;5.260;2023-07-29T00:10:38;20.60;99.90
33269;DHT22;19640;50.944;5.260;2023-07-29T00:13:05;20.60;99.90
33269;DHT22;19640;50.944;5.260;2023-07-29T00:15:31;20.40;99.90
33269;DHT22;19640;50.944;5.260;2023-07-29T00:18:03;20.30;99.90
33269;DHT22;19640;50.944;5.260;2023-07-29T00:20:28;20.10;99.90
33269;DHT22;19640;50.944;5.260;2023-07-29T00:22:54;20.20;99.90
33269;DHT22;19640;50.944;5.260;2023-07-29T00:25:20;20.30;99.90
33269;DHT22;19640;50.944;5.260;2023-07-29T00:27:47;20.40;99.90
33269;DHT22;19640;50.944;5.260;2023-07-29T00:30:12;20.40;99.90
33269;DHT22;19640;50.944;5.260;2023-07-29T00:32:38;20.40;99.90
33269;DHT22;19640;50.944;5.260;2023-07-29T00:35:04;20.30;99.90
33269;DHT22;19640;50.944;5.260;2023-07-29T00:37:30;20.30;99.90
33269;DHT22;19640;50.944;5.260;2023-07-29T00:39:57;20.30;99.90
33269;DHT22;19640;50.944;5.260;2023-07-29T00:42:24;20.40;99.90
33269;DHT22;19640;50.944;5.260;2023-07-29T00:44:50;20.40;99.90
33269;DHT22;19640;50.944;5.260;2023-07-29T00:47:18;20.40;99.90
33269;DHT22;19640;50.944;5.260;2023-07-29T00:49:44;20.40;99.90
33269;DHT22;19640;50.944;5.260;2023-07-29T00:52:12;20.40;99.90
33269;DHT22;19640;50.944;5.260;2023-07-29T00:54:42;20.40;99.90
33269;DHT22;19640;50.944;5.260;2023-07-29T00:57:08;20.40;99.90
33269;DHT22;19640;50.944;5.260;2023-07-29T00:59:35;20.50;99.90
33269;DHT22;19640;50.944;5.260;2023-07-29T01:02:02;20.50;99.90
33269;DHT22;19640;50.944;5.260;2023-07-29T01:04:27;20.70;99.90
33269;DHT22;19640;50.944;5.260;2023-07-29T01:10:04;20.70;99.90
33269;DHT22;19640;50.944;5.260;2023-07-29T01:15:16;20.60;99.90
33269;DHT22;19640;50.944;5.260;2023-07-29T01:17:52;20.60;99.90
33269;DHT22;19640;50.944;5.260;2023-07-29T01:20:19;20.50;99.90
33269;DHT22;19640;50.944;5.260;2023-07-29T01:22:46;20.40;99.90
33269;DHT22;19640;50.944;5.260;2023-07-29T01:25:15;20.20;99.90
33269;DHT22;19640;50.944;5.260;2023-07-29T01:27:45;20.40;99.90
33269;DHT22;19640;50.944;5.260;2023-07-29T01:30:11;20.50;99.90
33269;DHT22;19640;50.944;5.260;2023-07-29T01:32:56;20.50;99.90
33269;DHT22;19640;50.944;5.260;2023-07-29T01:35:31;20.50;99.90
33269;DHT22;19640;50.944;5.260;2023-07-29T01:38:18;20.40;99.90
33269;DHT22;19640;50.944;5.260;2023-07-29T01:40:49;20.00;99.90
33269;DHT22;19640;50.944;5.260;2023-07-29T01:43:16;20.00;99.90
33269;DHT22;19640;50.944;5.260;2023-07-29T01:45:44;19.90;99.90
33269;DHT22;19640;50.944;5.260;2023-07-29T01:48:10;19.80;99.90
33269;DHT22;19640;50.944;5.260;2023-07-29T01:50:36;19.70;99.90
33269;DHT22;19640;50.944;5.260;2023-07-29T01:53:02;19.80;99.90
33269;DHT22;19640;50.944;5.260;2023-07-29T01:55:29;19.90;99.90
33269;DHT22;19640;50.944;5.260;2023-07-29T01:57:54;19.90;99.90
33269;DHT22;19640;50.944;5.260;2023-07-29T02:00:21;19.90;99.90
33269;DHT22;19640;50.944;5.260;2023-07-29T02:02:47;20.00;99.90
33269;DHT22;19640;50.944;5.260;2023-07-29T02:05:13;19.80;99.90
33269;DHT22;19640;50.944;5.260;2023-07-29T02:07:39;19.70;99.90
33269;DHT22;19640;50.944;5.260;2023-07-29T02:10:05;19.70;99.90
33269;DHT22;19640;50.944;5.260;2023-07-29T02:12:33;19.60;99.90
33269;DHT22;19640;50.944;5.260;2023-07-29T02:14:59;19.70;99.90
33269;DHT22;19640;50.944;5.260;2023-07-29T02:17:25;19.70;99.90
33269;DHT22;19640;50.944;5.260;2023-07-29T02:19:52;19.70;99.90
33269;DHT22;19640;50.944;5.260;2023-07-29T02:22:18;19.60;99.90
33269;DHT22;19640;50.944;5.260;2023-07-29T02:24:44;19.70;99.90
33269;DHT22;19640;50.944;5.260;2023-07-29T02:27:10;19.60;99.90
33269;DHT22;19640;50.944;5.260;2023-07-29T02:29:36;19.50;99.90
33269;DHT22;19640;50.944;5.260;2023-07-29T02:32:02;19.50;99.90
33269;DHT22;19640;50.944;5.260;2023-07-29T02:34:28;19.60;99.90
33269;DHT22;19640;50.944;5.260;2023-07-29T02:36:54;19.50;99.90
33269;DHT22;19640;50.944;5.260;2023-07-29T02:39:19;19.50;99.90
33269;DHT22;19640;50.944;5.260;2023-07-29T02:41:45;19.50;99.90
33269;DHT22;19640;50.944;5.260;2023-07-29T02:44:11;19.50;99.90
33269;DHT22;19640;50.944;5.260;2023-07-29T02:46:37;19.30;99.90
33269;DHT22;19640;50.944;5.260;2023-07-29T02:49:03;19.40;99.90
33269;DHT22;19640;50.944;5.260;2023-07-29T02:51:30;19.40;99.90
33269;DHT22;19640;50.944;5.260;2023-07-29T02:53:55;19.20;99.90
33269;DHT22;19640;50.944;5.260;2023-07-29T02:56:21;19.20;99.90
33269;DHT22;19640;50.944;5.260;2023-07-29T02:58:47;19.20;99.90
33269;DHT22;19640;50.944;5.260;2023-07-29T03:01:12;19.20;99.90
33269;DHT22;19640;50.944;5.260;2023-07-29T03:03:39;19.30;99.90
33269;DHT22;19640;50.944;5.260;2023-07-29T03:06:07;19.20;99.90
33269;DHT22;19640;50.944;5.260;2023-07-29T03:08:33;19.20;99.90
33269;DHT22;19640;50.944;5.260;2023-07-29T03:11:04;19.20;99.90
33269;DHT22;19640;50.944;5.260;2023-07-29T03:13:30;19.20;99.90
33269;DHT22;19640;50.944;5.260;2023-07-29T03:16:07;19.10;99.90
33269;DHT22;19640;50.944;5.260;2023-07-29T03:18:33;19.00;99.90
33269;DHT22;19640;50.944;5.260;2023-07-29T03:20:59;18.80;99.90
33269;DHT22;19640;50.944;5.260;2023-07-29T03:23:25;18.80;99.90
33269;DHT22;19640;50.944;5.260;2023-07-29T03:25:52;18.80;99.90
33269;DHT22;19640;50.944;5.260;2023-07-29T03:28:26;18.80;99.90
33269;DHT22;19640;50.944;5.260;2023-07-29T03:30:53;18.60;99.90
33269;DHT22;19640;50.944;5.260;2023-07-29T03:33:19;18.50;99.90
33269;DHT22;19640;50.944;5.260;2023-07-29T03:35:45;18.40;99.90
33269;DHT22;19640;50.944;5.260;2023-07-29T03:38:13;18.50;99.90
33269;DHT22;19640;50.944;5.260;2023-07-29T03:40:39;18.30;99.90
33269;DHT22;19640;50.944;5.260;2023-07-29T03:43:05;18.30;99.90
33269;DHT22;19640;50.944;5.260;2023-07-29T03:45:31;18.20;99.90
33269;DHT22;19640;50.944;5.260;2023-07-29T03:47:57;18.40;99.90
33269;DHT22;19640;50.944;5.260;2023-07-29T03:50:23;18.20;99.90
33269;DHT22;19640;50.944;5.260;2023-07-29T03:52:49;18.30;99.90
33269;DHT22;19640;50.944;5.260;2023-07-29T03:55:15;18.40;99.90
33269;DHT22;19640;50.944;5.260;2023-07-29T03:57:41;18.30;99.90
33269;DHT22;19640;50.944;5.260;2023-07-29T04:00:07;18.30;99.90
33269;DHT22;19640;50.944;5.260;2023-07-29T04:02:34;18.30;99.90
33269;DHT22;19640;50.944;5.260;2023-07-29T04:05:03;18.40;99.90
33269;DHT22;19640;50.944;5.260;2023-07-29T04:07:29;18.30;99.90
33269;DHT22;19640;50.944;5.260;2023-07-29T04:09:55;18.10;99.90
33269;DHT22;19640;50.944;5.260;2023-07-29T04:12:22;18.10;99.90
33269;DHT22;19640;50.944;5.260;2023-07-29T04:14:48;18.20;99.90
33269;DHT22;19640;50.944;5.260;2023-07-29T04:17:14;18.30;99.90
33269;DHT22;19640;50.944;5.260;2023-07-29T04:19:41;18.30;99.90
33269;DHT22;19640;50.944;5.260;2023-07-29T04:22:06;18.20;99.90
33269;DHT22;19640;50.944;5.260;2023-07-29T04:24:32;18.30;99.90
33269;DHT22;19640;50.944;5.260;2023-07-29T04:26:58;18.20;99.90
33269;DHT22;19640;50.944;5.260;2023-07-29T04:29:24;18.20;99.90
33269;DHT22;19640;50.944;5.260;2023-07-29T04:31:53;18.30;99.90
33269;DHT22;19640;50.944;5.260;2023-07-29T04:34:19;18.40;99.90
33269;DHT22;19640;50.944;5.260;2023-07-29T04:36:46;18.50;99.90
33269;DHT22;19640;50.944;5.260;2023-07-29T04:39:12;18.50;99.90
33269;DHT22;19640;50.944;5.260;2023-07-29T04:41:37;18.50;99.90
33269;DHT22;19640;50.944;5.260;2023-07-29T04:44:03;18.40;99.90
33269;DHT22;19640;50.944;5.260;2023-07-29T04:46:29;18.50;99.90
33269;DHT22;19640;50.944;5.260;2023-07-29T04:48:55;18.60;99.90
33269;DHT22;19640;50.944;5.260;2023-07-29T04:51:21;18.50;99.90
33269;DHT22;19640;50.944;5.260;2023-07-29T04:53:46;18.40;99.90
33269;DHT22;19640;50.944;5.260;2023-07-29T04:56:12;18.40;99.90
33269;DHT22;19640;50.944;5.260;2023-07-29T04:58:38;18.30;99.90
33269;DHT22;19640;50.944;5.260;2023-07-29T05:01:04;18.40;99.90
33269;DHT22;19640;50.944;5.260;2023-07-29T05:03:30;18.50;99.90
33269;DHT22;19640;50.944;5.260;2023-07-29T05:05:57;18.40;99.90
33269;DHT22;19640;50.944;5.260;2023-07-29T05:08:23;18.40;99.90
33269;DHT22;19640;50.944;5.260;2023-07-29T05:10:50;18.40;99.90
33269;DHT22;19640;50.944;5.260;2023-07-29T05:13:17;18.40;99.90
33269;DHT22;19640;50.944;5.260;2023-07-29T05:15:42;18.40;99.90
33269;DHT22;19640;50.944;5.260;2023-07-29T05:18:08;18.40;99.90
33269;DHT22;19640;50.944;5.260;2023-07-29T05:20:34;18.40;99.90
33269;DHT22;19640;50.944;5.260;2023-07-29T05:22:59;18.40;99.90
33269;DHT22;19640;50.944;5.260;2023-07-29T05:25:26;18.40;99.90
33269;DHT22;19640;50.944;5.260;2023-07-29T05:27:52;18.40;99.90
33269;DHT22;19640;50.944;5.260;2023-07-29T05:30:17;18.60;99.90
33269;DHT22;19640;50.944;5.260;2023-07-29T05:32:43;18.60;99.90
33269;DHT22;19640;50.944;5.260;2023-07-29T05:35:09;18.40;99.90
33269;DHT22;19640;50.944;5.260;2023-07-29T05:37:37;18.30;99.90
33269;DHT22;19640;50.944;5.260;2023-07-29T05:40:04;18.60;99.90
33269;DHT22;19640;50.944;5.260;2023-07-29T05:42:30;18.80;99.90
33269;DHT22;19640;50.944;5.260;2023-07-29T05:44:56;18.90;99.90
33269;DHT22;19640;50.944;5.260;2023-07-29T05:47:21;18.70;99.90
33269;DHT22;19640;50.944;5.260;2023-07-29T05:49:47;18.80;99.90
33269;DHT22;19640;50.944;5.260;2023-07-29T05:52:12;18.90;99.90
33269;DHT22;19640;50.944;5.260;2023-07-29T05:54:38;18.90;99.90
33269;DHT22;19640;50.944;5.260;2023-07-29T05:57:04;19.00;99.90
33269;DHT22;19640;50.944;5.260;2023-07-29T05:59:30;19.00;99.90
33269;DHT22;19640;50.944;5.260;2023-07-29T06:01:56;19.10;99.90
33269;DHT22;19640;50.944;5.260;2023-07-29T06:04:21;19.10;99.90
33269;DHT22;19640;50.944;5.260;2023-07-29T06:06:47;19.30;99.90
33269;DHT22;19640;50.944;5.260;2023-07-29T06:09:12;19.50;99.90
33269;DHT22;19640;50.944;5.260;2023-07-29T06:11:38;19.60;99.90
33269;DHT22;19640;50.944;5.260;2023-07-29T06:14:04;19.30;99.90
33269;DHT22;19640;50.944;5.260;2023-07-29T06:16:29;19.10;99.90
33269;DHT22;19640;50.944;5.260;2023-07-29T06:18:55;19.10;99.90
33269;DHT22;19640;50.944;5.260;2023-07-29T06:21:21;19.00;99.90
33269;DHT22;19640;50.944;5.260;2023-07-29T06:23:47;19.00;99.90
33269;DHT22;19640;50.944;5.260;2023-07-29T06:26:12;19.10;99.90
33269;DHT22;19640;50.944;5.260;2023-07-29T06:28:38;19.40;99.90
33269;DHT22;19640;50.944;5.260;2023-07-29T06:31:04;19.40;99.90
33269;DHT22;19640;50.944;5.260;2023-07-29T06:33:30;19.50;99.90
33269;DHT22;19640;50.944;5.260;2023-07-29T06:35:55;19.80;99.90
33269;DHT22;19640;50.944;5.260;2023-07-29T06:38:21;19.90;99.90
33269;DHT22;19640;50.944;5.260;2023-07-29T06:40:50;19.70;99.90
33269;DHT22;19640;50.944;5.260;2023-07-29T06:43:16;19.80;99.90
33269;DHT22;19640;50.944;5.260;2023-07-29T06:45:42;20.00;99.90
33269;DHT22;19640;50.944;5.260;2023-07-29T06:48:08;20.10;99.90
33269;DHT22;19640;50.944;5.260;2023-07-29T06:50:33;20.20;99.90
33269;DHT22;19640;50.944;5.260;2023-07-29T06:52:59;20.20;99.90
33269;DHT22;19640;50.944;5.260;2023-07-29T06:55:25;20.00;99.90
33269;DHT22;19640;50.944;5.260;2023-07-29T06:57:50;20.10;99.90
33269;DHT22;19640;50.944;5.260;2023-07-29T07:00:16;20.50;99.90
33269;DHT22;19640;50.944;5.260;2023-07-29T07:02:42;21.00;99.90
33269;DHT22;19640;50.944;5.260;2023-07-29T07:05:09;21.70;99.90
33269;DHT22;19640;50.944;5.260;2023-07-29T07:07:34;22.50;99.90
33269;DHT22;19640;50.944;5.260;2023-07-29T07:10:01;22.70;99.90
33269;DHT22;19640;50.944;5.260;2023-07-29T07:12:27;22.70;99.90
33269;DHT22;19640;50.944;5.260;2023-07-29T07:14:52;21.90;99.90
33269;DHT22;19640;50.944;5.260;2023-07-29T07:17:18;21.80;99.90
33269;DHT22;19640;50.944;5.260;2023-07-29T07:19:44;21.70;99.90
33269;DHT22;19640;50.944;5.260;2023-07-29T07:22:09;21.60;99.90
33269;DHT22;19640;50.944;5.260;2023-07-29T07:24:36;21.60;99.90
33269;DHT22;19640;50.944;5.260;2023-07-29T07:27:02;21.70;99.90
33269;DHT22;19640;50.944;5.260;2023-07-29T07:29:29;21.50;99.90
33269;DHT22;19640;50.944;5.260;2023-07-29T07:31:56;21.40;99.90
33269;DHT22;19640;50.944;5.260;2023-07-29T07:34:22;21.50;99.90
33269;DHT22;19640;50.944;5.260;2023-07-29T07:36:47;22.00;99.90
33269;DHT22;19640;50.944;5.260;2023-07-29T07:39:13;22.90;99.90
33269;DHT22;19640;50.944;5.260;2023-07-29T07:41:40;24.20;99.90
33269;DHT22;19640;50.944;5.260;2023-07-29T07:44:06;24.80;99.90
33269;DHT22;19640;50.944;5.260;2023-07-29T07:46:32;23.70;99.90
33269;DHT22;19640;50.944;5.260;2023-07-29T07:48:58;23.40;99.90
33269;DHT22;19640;50.944;5.260;2023-07-29T07:51:23;22.80;99.90
33269;DHT22;19640;50.944;5.260;2023-07-29T07:53:49;22.60;99.90
33269;DHT22;19640;50.944;5.260;2023-07-29T07:56:15;22.20;99.90
33269;DHT22;19640;50.944;5.260;2023-07-29T07:58:41;22.00;99.90
33269;DHT22;19640;50.944;5.260;2023-07-29T08:01:08;22.00;99.90
33269;DHT22;19640;50.944;5.260;2023-07-29T08:03:34;22.00;99.90
33269;DHT22;19640;50.944;5.260;2023-07-29T08:06:00;22.10;99.90
33269;DHT22;19640;50.944;5.260;2023-07-29T08:08:26;22.00;99.90
33269;DHT22;19640;50.944;5.260;2023-07-29T08:10:56;21.90;99.90
33269;DHT22;19640;50.944;5.260;2023-07-29T08:13:23;21.40;99.90
33269;DHT22;19640;50.944;5.260;2023-07-29T08:15:52;21.50;99.90
33269;DHT22;19640;50.944;5.260;2023-07-29T08:18:19;21.50;99.90
33269;DHT22;19640;50.944;5.260;2023-07-29T08:20:56;21.50;99.90
33269;DHT22;19640;50.944;5.260;2023-07-29T08:23:29;21.40;99.90
33269;DHT22;19640;50.944;5.260;2023-07-29T08:25:56;21.20;99.90
33269;DHT22;19640;50.944;5.260;2023-07-29T08:28:30;21.00;99.90
33269;DHT22;19640;50.944;5.260;2023-07-29T08:30:56;21.20;99.90
33269;DHT22;19640;50.944;5.260;2023-07-29T08:33:22;21.00;99.90
33269;DHT22;19640;50.944;5.260;2023-07-29T08:35:47;21.10;99.90
33269;DHT22;19640;50.944;5.260;2023-07-29T08:38:13;21.30;99.90
33269;DHT22;19640;50.944;5.260;2023-07-29T08:40:50;21.50;99.90
33269;DHT22;19640;50.944;5.260;2023-07-29T08:43:19;21.80;99.90
33269;DHT22;19640;50.944;5.260;2023-07-29T08:45:46;22.10;99.90
33269;DHT22;19640;50.944;5.260;2023-07-29T08:48:13;22.10;99.90
33269;DHT22;19640;50.944;5.260;2023-07-29T08:50:41;22.20;99.90
33269;DHT22;19640;50.944;5.260;2023-07-29T08:53:09;22.50;99.90
33269;DHT22;19640;50.944;5.260;2023-07-29T08:55:35;22.60;99.90
33269;DHT22;19640;50.944;5.260;2023-07-29T08:58:01;23.00;99.90
33269;DHT22;19640;50.944;5.260;2023-07-29T09:00:28;23.30;99.90
33269;DHT22;19640;50.944;5.260;2023-07-29T09:02:54;23.40;99.90
33269;DHT22;19640;50.944;5.260;2023-07-29T09:05:23;23.10;99.90
33269;DHT22;19640;50.944;5.260;2023-07-29T09:07:51;23.50;99.90
33269;DHT22;19640;50.944;5.260;2023-07-29T09:10:21;23.60;99.90
33269;DHT22;19640;50.944;5.260;2023-07-29T09:12:49;23.80;99.90
33269;DHT22;19640;50.944;5.260;2023-07-29T09:15:36;23.80;99.90
33269;DHT22;19640;50.944;5.260;2023-07-29T09:18:15;23.40;99.90
33269;DHT22;19640;50.944;5.260;2023-07-29T09:20:41;23.40;99.90
33269;DHT22;19640;50.944;5.260;2023-07-29T09:23:10;23.30;99.90
33269;DHT22;19640;50.944;5.260;2023-07-29T09:25:36;23.00;99.90
33269;DHT22;19640;50.944;5.260;2023-07-29T09:28:14;22.80;99.90
33269;DHT22;19640;50.944;5.260;2023-07-29T09:30:41;22.80;99.90
33269;DHT22;19640;50.944;5.260;2023-07-29T09:33:09;22.50;99.90
33269;DHT22;19640;50.944;5.260;2023-07-29T09:35:41;22.50;99.90
33269;DHT22;19640;50.944;5.260;2023-07-29T09:38:08;22.40;99.90
33269;DHT22;19640;50.944;5.260;2023-07-29T09:40:40;22.20;99.90
33269;DHT22;19640;50.944;5.260;2023-07-29T09:43:07;22.20;99.90
33269;DHT22;19640;50.944;5.260;2023-07-29T09:45:34;22.10;99.90
33269;DHT22;19640;50.944;5.260;2023-07-29T09:48:01;22.20;99.90
33269;DHT22;19640;50.944;5.260;2023-07-29T09:50:27;22.60;99.90
33269;DHT22;19640;50.944;5.260;2023-07-29T09:52:54;23.20;99.90
33269;DHT22;19640;50.944;5.260;2023-07-29T09:55:25;23.50;99.90
33269;DHT22;19640;50.944;5.260;2023-07-29T09:57:57;23.80;99.90
33269;DHT22;19640;50.944;5.260;2023-07-29T10:00:26;24.00;99.90
33269;DHT22;19640;50.944;5.260;2023-07-29T10:02:52;23.80;99.90
33269;DHT22;19640;50.944;5.260;2023-07-29T10:05:18;23.90;99.90
33269;DHT22;19640;50.944;5.260;2023-07-29T10:07:44;23.70;99.90
33269;DHT22;19640;50.944;5.260;2023-07-29T10:10:13;23.70;99.90
33269;DHT22;19640;50.944;5.260;2023-07-29T10:12:39;23.90;99.90
33269;DHT22;19640;50.944;5.260;2023-07-29T10:15:08;24.00;99.90
33269;DHT22;19640;50.944;5.260;2023-07-29T10:17:36;23.90;99.90
33269;DHT22;19640;50.944;5.260;2023-07-29T10:20:07;23.60;99.90
33269;DHT22;19640;50.944;5.260;2023-07-29T10:22:37;23.80;99.90
33269;DHT22;19640;50.944;5.260;2023-07-29T10:25:06;23.90;99.90
33269;DHT22;19640;50.944;5.260;2023-07-29T10:28:03;23.60;99.90
33269;DHT22;19640;50.944;5.260;2023-07-29T10:30:30;23.80;99.90
33269;DHT22;19640;50.944;5.260;2023-07-29T10:32:58;23.80;99.90
33269;DHT22;19640;50.944;5.260;2023-07-29T10:35:24;24.10;99.90
33269;DHT22;19640;50.944;5.260;2023-07-29T10:37:51;24.40;99.90
33269;DHT22;19640;50.944;5.260;2023-07-29T10:40:19;24.60;99.90
33269;DHT22;19640;50.944;5.260;2023-07-29T10:43:02;24.70;99.90
33269;DHT22;19640;50.944;5.260;2023-07-29T10:45:37;24.30;99.90
33269;DHT22;19640;50.944;5.260;2023-07-29T10:48:39;24.10;99.90
33269;DHT22;19640;50.944;5.260;2023-07-29T10:54:01;23.30;99.90
33269;DHT22;19640;50.944;5.260;2023-07-29T10:56:31;23.10;99.90
33269;DHT22;19640;50.944;5.260;2023-07-29T11:01:53;23.00;99.90
33269;DHT22;19640;50.944;5.260;2023-07-29T11:09:52;22.90;99.90
33269;DHT22;19640;50.944;5.260;2023-07-29T11:12:46;22.90;99.90
33269;DHT22;19640;50.944;5.260;2023-07-29T11:15:21;22.90;99.90
33269;DHT22;19640;50.944;5.260;2023-07-29T11:17:53;22.90;99.90
33269;DHT22;19640;50.944;5.260;2023-07-29T11:20:24;22.70;99.90
33269;DHT22;19640;50.944;5.260;2023-07-29T11:22:50;22.70;99.90
33269;DHT22;19640;50.944;5.260;2023-07-29T11:25:17;22.80;99.90
33269;DHT22;19640;50.944;5.260;2023-07-29T11:27:44;22.80;99.90
33269;DHT22;19640;50.944;5.260;2023-07-29T11:30:12;23.10;99.90
33269;DHT22;19640;50.944;5.260;2023-07-29T11:32:39;23.00;99.90
33269;DHT22;19640;50.944;5.260;2023-07-29T11:35:08;22.60;99.90
33269;DHT22;19640;50.944;5.260;2023-07-29T11:37:35;22.30;99.90
33269;DHT22;19640;50.944;5.260;2023-07-29T11:40:01;22.10;99.90
33269;DHT22;19640;50.944;5.260;2023-07-29T11:42:28;22.00;99.90
33269;DHT22;19640;50.944;5.260;2023-07-29T11:44:57;21.80;99.90
33269;DHT22;19640;50.944;5.260;2023-07-29T11:47:23;21.60;99.90
33269;DHT22;19640;50.944;5.260;2023-07-29T11:49:49;21.60;99.90
33269;DHT22;19640;50.944;5.260;2023-07-29T11:52:15;22.00;99.90
33269;DHT22;19640;50.944;5.260;2023-07-29T11:54:45;21.90;99.90
33269;DHT22;19640;50.944;5.260;2023-07-29T11:57:11;22.00;99.90
33269;DHT22;19640;50.944;5.260;2023-07-29T11:59:37;22.20;99.90
33269;DHT22;19640;50.944;5.260;2023-07-29T12:02:11;21.70;99.90
33269;DHT22;19640;50.944;5.260;2023-07-29T12:04:38;21.60;99.90
33269;DHT22;19640;50.944;5.260;2023-07-29T12:07:05;21.80;99.90
33269;DHT22;19640;50.944;5.260;2023-07-29T12:09:31;21.90;99.90
33269;DHT22;19640;50.944;5.260;2023-07-29T12:11:57;22.10;99.90
33269;DHT22;19640;50.944;5.260;2023-07-29T12:14:26;22.00;99.90
33269;DHT22;19640;50.944;5.260;2023-07-29T12:16:52;22.20;99.90
33269;DHT22;19640;50.944;5.260;2023-07-29T12:19:19;22.20;99.90
33269;DHT22;19640;50.944;5.260;2023-07-29T12:21:45;22.30;99.90
33269;DHT22;19640;50.944;5.260;2023-07-29T12:24:14;22.00;99.90
33269;DHT22;19640;50.944;5.260;2023-07-29T12:26:41;22.00;99.90
33269;DHT22;19640;50.944;5.260;2023-07-29T12:29:17;22.30;99.90
33269;DHT22;19640;50.944;5.260;2023-07-29T12:31:48;22.30;99.90
33269;DHT22;19640;50.944;5.260;2023-07-29T12:34:20;22.20;99.90
33269;DHT22;19640;50.944;5.260;2023-07-29T12:36:49;22.20;99.90
33269;DHT22;19640;50.944;5.260;2023-07-29T12:39:25;21.50;99.90
33269;DHT22;19640;50.944;5.260;2023-07-29T12:41:53;21.40;99.90
33269;DHT22;19640;50.944;5.260;2023-07-29T12:44:19;21.30;99.90
33269;DHT22;19640;50.944;5.260;2023-07-29T12:46:45;21.00;99.90
33269;DHT22;19640;50.944;5.260;2023-07-29T12:49:10;21.00;99.90
33269;DHT22;19640;50.944;5.260;2023-07-29T12:51:36;20.70;99.90
33269;DHT22;19640;50.944;5.260;2023-07-29T12:54:03;20.90;99.90
33269;DHT22;19640;50.944;5.260;2023-07-29T12:56:30;20.90;99.90
33269;DHT22;19640;50.944;5.260;2023-07-29T12:58:57;21.30;99.90
33269;DHT22;19640;50.944;5.260;2023-07-29T13:01:24;21.40;99.90
33269;DHT22;19640;50.944;5.260;2023-07-29T13:03:49;21.50;99.90
33269;DHT22;19640;50.944;5.260;2023-07-29T13:06:15;21.40;99.90
33269;DHT22;19640;50.944;5.260;2023-07-29T13:08:41;21.20;99.90
33269;DHT22;19640;50.944;5.260;2023-07-29T13:11:07;21.50;99.90
33269;DHT22;19640;50.944;5.260;2023-07-29T13:13:39;21.30;99.90
33269;DHT22;19640;50.944;5.260;2023-07-29T13:16:04;21.50;99.90
33269;DHT22;19640;50.944;5.260;2023-07-29T13:18:34;21.80;99.90
33269;DHT22;19640;50.944;5.260;2023-07-29T13:21:00;21.90;99.90
33269;DHT22;19640;50.944;5.260;2023-07-29T13:23:26;21.50;99.90
33269;DHT22;19640;50.944;5.260;2023-07-29T13:25:52;21.40;99.90
33269;DHT22;19640;50.944;5.260;2023-07-29T13:28:20;21.50;99.90
33269;DHT22;19640;50.944;5.260;2023-07-29T13:30:45;21.50;99.90
33269;DHT22;19640;50.944;5.260;2023-07-29T13:33:11;21.70;99.90
33269;DHT22;19640;50.944;5.260;2023-07-29T13:35:37;21.80;99.90
33269;DHT22;19640;50.944;5.260;2023-07-29T13:38:03;21.80;99.90
33269;DHT22;19640;50.944;5.260;2023-07-29T13:40:31;21.60;99.90
33269;DHT22;19640;50.944;5.260;2023-07-29T13:42:57;21.50;99.90
33269;DHT22;19640;50.944;5.260;2023-07-29T13:45:23;21.20;99.90
33269;DHT22;19640;50.944;5.260;2023-07-29T13:47:49;21.20;99.90
33269;DHT22;19640;50.944;5.260;2023-07-29T13:50:16;21.20;99.90
33269;DHT22;19640;50.944;5.260;2023-07-29T13:52:43;21.50;99.90
33269;DHT22;19640;50.944;5.260;2023-07-29T13:55:09;21.80;99.90
33269;DHT22;19640;50.944;5.260;2023-07-29T13:57:38;21.80;99.90
33269;DHT22;19640;50.944;5.260;2023-07-29T14:00:05;22.20;99.90
33269;DHT22;19640;50.944;5.260;2023-07-29T14:02:31;22.30;99.90
33269;DHT22;19640;50.944;5.260;2023-07-29T14:04:57;22.60;99.90
33269;DHT22;19640;50.944;5.260;2023-07-29T14:07:22;22.90;99.90
33269;DHT22;19640;50.944;5.260;2023-07-29T14:09:48;22.70;99.90
33269;DHT22;19640;50.944;5.260;2023-07-29T14:12:14;22.90;99.90
33269;DHT22;19640;50.944;5.260;2023-07-29T14:14:41;22.90;99.90
33269;DHT22;19640;50.944;5.260;2023-07-29T14:17:07;22.80;99.90
33269;DHT22;19640;50.944;5.260;2023-07-29T14:19:34;23.00;99.90
33269;DHT22;19640;50.944;5.260;2023-07-29T14:22:00;23.20;99.90
33269;DHT22;19640;50.944;5.260;2023-07-29T14:24:26;23.10;99.90
33269;DHT22;19640;50.944;5.260;2023-07-29T14:26:51;23.10;99.90
33269;DHT22;19640;50.944;5.260;2023-07-29T14:29:18;23.10;99.90
33269;DHT22;19640;50.944;5.260;2023-07-29T14:31:45;23.10;99.90
33269;DHT22;19640;50.944;5.260;2023-07-29T14:34:10;23.10;99.90
33269;DHT22;19640;50.944;5.260;2023-07-29T14:36:36;23.20;99.90
33269;DHT22;19640;50.944;5.260;2023-07-29T14:39:02;23.20;99.90
33269;DHT22;19640;50.944;5.260;2023-07-29T14:41:28;23.10;99.90
33269;DHT22;19640;50.944;5.260;2023-07-29T14:43:54;23.30;99.90
33269;DHT22;19640;50.944;5.260;2023-07-29T14:46:20;23.50;99.90
33269;DHT22;19640;50.944;5.260;2023-07-29T14:48:45;23.50;99.90
33269;DHT22;19640;50.944;5.260;2023-07-29T14:51:12;23.50;99.90
33269;DHT22;19640;50.944;5.260;2023-07-29T14:53:38;23.50;99.90
33269;DHT22;19640;50.944;5.260;2023-07-29T14:56:04;23.10;99.90
33269;DHT22;19640;50.944;5.260;2023-07-29T14:58:30;22.90;99.90
33269;DHT22;19640;50.944;5.260;2023-07-29T15:00:56;23.00;99.90
33269;DHT22;19640;50.944;5.260;2023-07-29T15:03:21;22.80;99.90
33269;DHT22;19640;50.944;5.260;2023-07-29T15:05:47;22.90;99.90
33269;DHT22;19640;50.944;5.260;2023-07-29T15:08:13;22.50;99.90
33269;DHT22;19640;50.944;5.260;2023-07-29T15:10:38;22.50;99.90
33269;DHT22;19640;50.944;5.260;2023-07-29T15:13:04;22.20;99.90
33269;DHT22;19640;50.944;5.260;2023-07-29T15:15:30;22.10;99.90
33269;DHT22;19640;50.944;5.260;2023-07-29T15:17:56;21.90;99.90
33269;DHT22;19640;50.944;5.260;2023-07-29T15:20:22;22.00;99.90
33269;DHT22;19640;50.944;5.260;2023-07-29T15:22:48;22.00;99.90
33269;DHT22;19640;50.944;5.260;2023-07-29T15:25:13;22.50;99.90
33269;DHT22;19640;50.944;5.260;2023-07-29T15:27:39;22.60;99.90
33269;DHT22;19640;50.944;5.260;2023-07-29T15:30:07;22.60;99.90
33269;DHT22;19640;50.944;5.260;2023-07-29T15:32:32;22.40;99.90
33269;DHT22;19640;50.944;5.260;2023-07-29T15:34:58;22.10;99.90
33269;DHT22;19640;50.944;5.260;2023-07-29T15:37:27;22.00;99.90
33269;DHT22;19640;50.944;5.260;2023-07-29T15:39:53;22.10;99.90
33269;DHT22;19640;50.944;5.260;2023-07-29T15:42:19;22.20;99.90
33269;DHT22;19640;50.944;5.260;2023-07-29T15:44:44;22.30;99.90
33269;DHT22;19640;50.944;5.260;2023-07-29T15:47:10;22.60;99.90